Time;durP1;ratioP1;P1;durP2;ratioP2;P2;SDS_P1;SDS_P2;PMS_P1;PMS_P2;Temp;Humidity;BMP_temperature;BMP_pressure;BME280_temperature;BME280_humidity;BME280_pressure;Samples;Min_cycle;Max_cycle;Signal;HPM_P1;HPM_P2
2022/04/10 00:02:23;;;;;;;5.23;3.63;;;;;;;16.17;43.87;93509.28;5100635;28;20198;-82
2022/04/10 00:04:50;;;;;;;5.37;3.23;;;;;;;16.14;44.26;93514.84;5090425;28;20615;-80
2022/04/10 00:07:17;;;;;;;7.07;3.97;;;;;;;16.13;44.27;93497.00;5103352;28;20187;-78
2022/04/10 00:09:44;;;;;;;7.37;3.70;;;;;;;16.14;44.25;93503.72;5094196;28;20642;-79
2022/04/10 00:12:12;;;;;;;6.47;3.10;;;;;;;16.14;44.24;93506.31;5092134;28;20193;-81
2022/04/10 00:14:39;;;;;;;5.37;3.60;;;;;;;16.11;44.26;93499.00;5090222;28;20188;-80
2022/04/10 00:17:06;;;;;;;5.00;3.27;;;;;;;16.07;44.38;93492.66;5090929;28;20193;-83
2022/04/10 00:19:32;;;;;;;8.23;3.50;;;;;;;16.09;44.25;93493.22;5090047;28;20178;-79
2022/04/10 00:21:59;;;;;;;6.50;3.10;;;;;;;16.08;44.44;93494.22;5090290;28;20197;-79
2022/04/10 00:24:26;;;;;;;5.63;3.40;;;;;;;16.08;44.43;93501.97;5087844;28;20209;-84
2022/04/10 00:26:53;;;;;;;6.90;3.20;;;;;;;16.07;44.25;93487.50;5090481;28;20225;-80
2022/04/10 00:29:22;;;;;;;6.27;3.70;;;;;;;16.09;44.45;93501.75;5090104;28;20204;-78
2022/04/10 00:31:49;;;;;;;6.27;3.60;;;;;;;16.04;44.63;93510.09;5089928;28;20193;-78
2022/04/10 00:34:15;;;;;;;7.67;3.43;;;;;;;16.00;44.71;93500.38;5109108;28;20224;-82
2022/04/10 00:36:42;;;;;;;6.67;3.67;;;;;;;15.98;44.91;93497.22;5110365;28;20652;-75
2022/04/10 00:39:09;;;;;;;8.60;3.80;;;;;;;15.92;44.94;93485.91;5110369;28;20227;-81
2022/04/10 00:41:36;;;;;;;6.30;4.03;;;;;;;15.94;44.87;93501.19;5109788;28;20292;-82
2022/04/10 00:44:08;;;;;;;6.10;4.00;;;;;;;15.89;45.04;93508.69;5110447;28;20209;-79
2022/04/10 00:46:37;;;;;;;7.53;4.27;;;;;;;15.88;44.96;93502.75;5110131;28;20189;-77
2022/04/10 00:49:04;;;;;;;10.53;3.97;;;;;;;15.85;45.12;93490.28;5090304;28;20281;-80
2022/04/10 00:51:41;;;;;;;7.30;3.87;;;;;;;15.86;45.20;93498.81;5089767;28;20190;-80
2022/04/10 00:54:09;;;;;;;8.90;4.20;;;;;;;15.81;45.19;93494.25;5108287;28;20189;-82
2022/04/10 00:56:36;;;;;;;8.67;4.43;;;;;;;15.74;45.51;93476.19;5110055;28;20197;-77
2022/04/10 00:59:04;;;;;;;9.30;4.40;;;;;;;15.73;45.55;93466.09;5110520;28;20189;-79
2022/04/10 01:01:30;;;;;;;8.10;4.43;;;;;;;15.69;45.85;93470.84;5109893;28;20200;-75
2022/04/10 01:03:58;;;;;;;8.33;4.53;;;;;;;15.66;45.83;93467.88;5109880;28;20220;-78
2022/04/10 01:06:26;;;;;;;9.47;4.70;;;;;;;15.63;46.00;93463.06;5110150;28;20262;-75
2022/04/10 01:08:53;;;;;;;7.93;5.10;;;;;;;15.58;46.09;93455.94;5110122;28;20200;-71
2022/04/10 01:11:20;;;;;;;10.17;5.50;;;;;;;15.57;46.37;93449.22;5110062;28;20181;-70
2022/04/10 01:13:47;;;;;;;9.63;5.13;;;;;;;15.55;46.31;93444.25;5094345;28;20680;-78
2022/04/10 01:16:14;;;;;;;8.53;4.87;;;;;;;15.52;46.35;93443.88;5088732;28;20194;-78
2022/04/10 01:18:42;;;;;;;8.67;4.90;;;;;;;15.49;46.39;93437.31;5089629;28;20289;-81
2022/04/10 01:21:16;;;;;;;5.83;4.80;;;;;;;15.48;46.74;93432.38;5092195;28;20661;-74
2022/04/10 01:23:45;;;;;;;8.93;4.80;;;;;;;15.43;46.46;93430.38;5092986;28;20553;-77
2022/04/10 01:26:11;;;;;;;7.23;4.67;;;;;;;15.44;46.73;93439.69;5092964;28;20185;-73
2022/04/10 01:28:56;;;;;;;9.00;4.97;;;;;;;15.42;46.80;93441.69;5093255;28;20181;-70
2022/04/10 01:31:23;;;;;;;9.97;4.63;;;;;;;15.42;47.01;93446.06;5092730;28;20664;-76
2022/04/10 01:33:51;;;;;;;11.10;4.70;;;;;;;15.37;47.07;93438.91;5108628;28;20785;-74
2022/04/10 01:36:18;;;;;;;8.07;4.73;;;;;;;15.36;47.05;93442.47;5113371;28;20221;-74
2022/04/10 01:38:47;;;;;;;11.13;4.87;;;;;;;15.32;47.15;93457.50;5113706;28;20189;-77
2022/04/10 01:41:14;;;;;;;10.00;5.20;;;;;;;15.30;47.01;93458.72;5110967;28;20807;-74
2022/04/10 01:43:46;;;;;;;7.00;4.30;;;;;;;15.25;47.33;93468.81;5113082;28;20225;-73
2022/04/10 01:46:13;;;;;;;7.27;4.17;;;;;;;15.19;47.28;93467.00;5101044;28;20610;-72
2022/04/10 01:48:40;;;;;;;15.23;5.30;;;;;;;15.17;47.69;93464.66;5092422;28;20194;-73
2022/04/10 01:51:07;;;;;;;8.37;4.37;;;;;;;15.14;47.57;93453.94;5092611;28;20182;-73
2022/04/10 01:53:34;;;;;;;8.20;4.53;;;;;;;15.11;47.43;93459.47;5106409;28;20193;-75
2022/04/10 01:56:03;;;;;;;9.80;5.30;;;;;;;15.08;47.50;93459.88;5113138;28;20189;-71
2022/04/10 01:58:30;;;;;;;7.57;4.70;;;;;;;15.08;47.71;93459.88;5112556;28;20280;-78
2022/04/10 02:00:57;;;;;;;7.80;4.47;;;;;;;15.07;47.70;93456.53;5113456;28;20185;-77
2022/04/10 02:03:24;;;;;;;7.80;4.20;;;;;;;15.06;47.63;93452.34;5112633;28;20197;-69
2022/04/10 02:05:50;;;;;;;8.87;4.10;;;;;;;15.04;47.88;93452.53;5111023;28;20203;-76
2022/04/10 02:08:17;;;;;;;7.13;4.57;;;;;;;15.02;47.79;93441.63;5112427;28;20659;-77
2022/04/10 02:10:44;;;;;;;8.27;4.10;;;;;;;15.03;47.82;93437.28;5112853;28;20185;-78
2022/04/10 02:13:12;;;;;;;10.63;4.33;;;;;;;15.02;47.93;93435.69;5101429;28;20185;-77
2022/04/10 02:15:39;;;;;;;9.00;4.80;;;;;;;15.01;48.01;93434.09;5092675;28;20194;-77
2022/04/10 02:18:08;;;;;;;9.33;4.33;;;;;;;15.02;47.98;93439.06;5092087;28;20254;-81
2022/04/10 02:20:35;;;;;;;12.23;4.80;;;;;;;14.99;48.08;93442.03;5092313;28;20258;-82
2022/04/10 02:23:01;;;;;;;7.80;4.63;;;;;;;15.02;48.26;93451.13;5091747;28;20193;-78
2022/04/10 02:25:28;;;;;;;9.10;4.63;;;;;;;15.02;48.16;93448.56;5092006;28;20232;-80
2022/04/10 02:27:55;;;;;;;10.10;4.90;;;;;;;15.04;48.00;93447.38;5091932;28;20346;-76
2022/04/10 02:30:23;;;;;;;7.53;4.33;;;;;;;15.06;48.20;93449.75;5092156;28;20186;-77
2022/04/10 02:32:50;;;;;;;9.80;3.87;;;;;;;15.00;47.91;93435.09;5099183;28;20189;-77
2022/04/10 02:35:17;;;;;;;8.40;4.93;;;;;;;15.10;48.00;93442.44;5110589;28;20719;-78
2022/04/10 02:37:45;;;;;;;6.00;4.20;;;;;;;15.10;47.92;93438.09;5112487;28;20181;-78
2022/04/10 02:40:15;;;;;;;6.10;3.67;;;;;;;15.17;47.84;93440.69;5111925;28;20189;-79
2022/04/10 02:42:42;;;;;;;9.97;4.60;;;;;;;15.20;47.61;93442.88;5112268;28;20220;-78
2022/04/10 02:45:10;;;;;;;10.60;4.47;;;;;;;15.23;47.82;93460.47;5111774;28;20231;-81
2022/04/10 02:47:38;;;;;;;5.20;3.93;;;;;;;15.27;47.63;93446.22;5103489;28;20198;-79
2022/04/10 02:50:05;;;;;;;6.57;3.63;;;;;;;15.28;47.59;93456.34;5092011;28;20185;-75
2022/04/10 02:52:32;;;;;;;6.00;4.17;;;;;;;15.32;47.58;93456.72;5096778;28;20268;-83
2022/04/10 02:54:59;;;;;;;7.47;4.20;;;;;;;15.38;47.63;93434.56;5111434;28;20192;-74
2022/04/10 02:57:26;;;;;;;5.50;3.30;;;;;;;15.37;47.23;93445.84;5112407;28;20189;-81
2022/04/10 02:59:53;;;;;;;5.67;3.73;;;;;;;15.37;47.39;93464.69;5112735;28;20182;-77
2022/04/10 03:02:20;;;;;;;6.53;3.53;;;;;;;15.38;47.45;93458.53;5112418;28;20683;-78
2022/04/10 03:04:48;;;;;;;5.97;3.57;;;;;;;15.41;47.49;93458.13;5114538;28;20224;-80
2022/04/10 03:07:14;;;;;;;5.73;3.33;;;;;;;15.47;47.31;93470.22;5114763;28;20652;-79
2022/04/10 03:09:42;;;;;;;7.03;3.17;;;;;;;15.50;47.19;93463.88;5111596;28;20683;-70
2022/04/10 03:12:09;;;;;;;7.30;3.67;;;;;;;15.51;47.25;93468.84;5111251;28;20188;-81
2022/04/10 03:14:36;;;;;;;6.27;3.40;;;;;;;15.53;47.39;93459.13;5111904;28;20188;-75
2022/04/10 03:17:03;;;;;;;7.10;3.57;;;;;;;15.55;47.25;93457.16;5110786;28;20188;-77
2022/04/10 03:19:30;;;;;;;11.07;3.60;;;;;;;15.53;47.35;93469.44;5111775;28;20269;-80
2022/04/10 03:21:58;;;;;;;8.90;4.00;;;;;;;15.55;47.42;93479.56;5111586;28;20192;-78
2022/04/10 03:24:25;;;;;;;5.70;3.23;;;;;;;15.57;47.31;93474.97;5111366;28;20221;-76
2022/04/10 03:26:52;;;;;;;7.97;3.37;;;;;;;15.57;47.54;93486.06;5111409;28;20193;-80
2022/04/10 03:29:19;;;;;;;6.50;3.37;;;;;;;15.60;47.43;93487.47;5111178;28;20658;-76
2022/04/10 03:31:46;;;;;;;6.03;3.10;;;;;;;15.59;47.56;93467.84;5110314;28;20262;-77
2022/04/10 03:34:13;;;;;;;7.70;3.30;;;;;;;15.59;47.66;93470.44;5090676;28;20320;-78
2022/04/10 03:36:40;;;;;;;8.03;3.70;;;;;;;15.62;47.77;93477.75;5090906;28;20639;-79
2022/04/10 03:39:08;;;;;;;5.93;3.30;;;;;;;15.61;48.08;93483.91;5091093;28;20189;-81
2022/04/10 03:41:35;;;;;;;6.53;3.50;;;;;;;15.65;48.02;93476.59;5091061;28;20197;-79
2022/04/10 03:44:02;;;;;;;7.20;3.40;;;;;;;15.68;48.13;93466.69;5090854;28;20197;-72
2022/04/10 03:46:28;;;;;;;7.40;3.30;;;;;;;15.64;48.31;93475.00;5091418;28;20247;-79
2022/04/10 03:48:55;;;;;;;5.03;2.93;;;;;;;15.60;48.79;93482.31;5110602;28;20680;-75
2022/04/10 03:51:22;;;;;;;6.47;3.27;;;;;;;15.63;48.77;93487.09;5100322;28;20186;-76
2022/04/10 03:53:49;;;;;;;6.00;3.57;;;;;;;15.62;48.73;93497.56;5090078;28;20214;-73
2022/04/10 03:56:17;;;;;;;7.90;3.50;;;;;;;15.58;49.23;93502.31;5090478;28;20193;-76
2022/04/10 03:58:44;;;;;;;5.30;3.90;;;;;;;15.54;49.22;93501.13;5090048;28;20182;-77
2022/04/10 04:01:11;;;;;;;7.40;3.33;;;;;;;15.56;49.51;93499.16;5090311;28;20189;-79
2022/04/10 04:03:38;;;;;;;9.87;4.23;;;;;;;15.49;49.96;93500.94;5089917;28;20208;-75
2022/04/10 04:06:06;;;;;;;5.37;3.43;;;;;;;15.53;50.10;93520.97;5089886;28;20581;-73
2022/04/10 04:08:33;;;;;;;7.53;4.17;;;;;;;15.52;50.46;93509.06;5089964;28;20228;-80
2022/04/10 04:11:00;;;;;;;5.73;3.70;;;;;;;15.53;50.34;93515.81;5097272;28;20661;-80
2022/04/10 04:13:28;;;;;;;9.07;3.50;;;;;;;15.54;50.65;93520.00;5110772;28;20193;-73
2022/04/10 04:15:55;;;;;;;7.30;4.00;;;;;;;15.52;51.02;93531.47;5110832;28;20189;-81
2022/04/10 04:18:22;;;;;;;7.63;3.23;;;;;;;15.50;51.05;93528.28;5092273;28;20193;-74
2022/04/10 04:20:49;;;;;;;6.83;3.60;;;;;;;15.51;51.17;93527.31;5090172;28;20201;-77
2022/04/10 04:23:17;;;;;;;4.60;3.30;;;;;;;15.55;51.40;93541.41;5090670;28;20186;-78
2022/04/10 04:25:44;;;;;;;6.93;3.70;;;;;;;15.53;51.49;93541.56;5090089;28;20221;-81
2022/04/10 04:28:11;;;;;;;8.17;3.93;;;;;;;15.54;51.80;93545.75;5090264;28;20197;-82
2022/04/10 04:30:39;;;;;;;5.30;3.93;;;;;;;15.51;52.17;93553.06;5094664;28;20220;-78
2022/04/10 04:33:07;;;;;;;8.73;4.90;;;;;;;15.45;52.39;93559.78;5096225;28;20189;-78
2022/04/10 04:35:34;;;;;;;6.23;4.40;;;;;;;15.52;52.72;93568.34;5090036;28;20238;-76
2022/04/10 04:38:01;;;;;;;7.87;5.67;;;;;;;15.50;52.55;93575.47;5089899;28;20197;-76
2022/04/10 04:40:28;;;;;;;8.30;5.90;;;;;;;15.48;53.07;93590.31;5089478;28;20200;-77
2022/04/10 04:42:55;;;;;;;8.00;5.93;;;;;;;15.54;52.79;93593.91;5090529;28;20677;-75
2022/04/10 04:45:22;;;;;;;6.93;6.23;;;;;;;15.48;53.14;93595.47;5089730;28;20568;-78
2022/04/10 04:47:50;;;;;;;8.10;7.27;;;;;;;15.49;53.29;93586.75;5089764;28;20665;-74
2022/04/10 04:50:17;;;;;;;8.00;7.20;;;;;;;15.47;53.27;93598.25;5089882;28;20189;-76
2022/04/10 04:52:44;;;;;;;12.90;7.30;;;;;;;15.45;53.37;93605.38;5102340;28;20197;-73
2022/04/10 04:55:11;;;;;;;8.93;8.07;;;;;;;15.39;53.83;93606.94;5110252;28;20275;-77
2022/04/10 04:57:38;;;;;;;11.43;8.13;;;;;;;15.31;53.70;93612.25;5110659;28;20181;-77
2022/04/10 05:00:06;;;;;;;9.77;8.77;;;;;;;15.34;53.88;93616.25;5113711;28;20721;-79
2022/04/10 05:02:33;;;;;;;13.80;8.73;;;;;;;15.28;54.23;93615.22;5095660;28;20212;-82
2022/04/10 05:05:02;;;;;;;10.17;9.07;;;;;;;15.26;54.06;93624.94;5094283;28;20238;-81
2022/04/10 05:07:28;;;;;;;14.47;9.07;;;;;;;15.26;54.07;93622.34;5093573;28;20673;-82
2022/04/10 05:09:55;;;;;;;10.17;9.17;;;;;;;15.17;54.34;93626.09;5094462;28;20178;-74
2022/04/10 05:12:23;;;;;;;9.50;8.57;;;;;;;15.13;54.89;93633.41;5101665;28;20674;-79
2022/04/10 05:14:50;;;;;;;10.10;9.10;;;;;;;15.10;54.80;93631.19;5111772;28;20200;-76
2022/04/10 05:17:17;;;;;;;10.47;8.80;;;;;;;15.09;54.86;93621.88;5111928;28;20189;-75
2022/04/10 05:19:43;;;;;;;11.57;8.43;;;;;;;15.04;54.96;93617.31;5112291;28;20200;-80
2022/04/10 05:22:12;;;;;;;12.97;10.03;;;;;;;15.09;55.02;93623.69;5110678;28;20192;-78
2022/04/10 05:24:38;;;;;;;11.07;9.87;;;;;;;15.06;55.31;93623.06;5111084;28;20185;-75
2022/04/10 05:27:06;;;;;;;14.37;8.93;;;;;;;15.05;55.63;93624.03;5111268;28;20197;-73
2022/04/10 05:29:33;;;;;;;12.63;8.73;;;;;;;15.01;55.88;93627.19;5110724;28;20278;-87
2022/04/10 05:32:00;;;;;;;9.53;8.63;;;;;;;15.00;55.82;93630.75;5109768;28;20272;-73
2022/04/10 05:34:26;;;;;;;9.23;8.33;;;;;;;14.97;55.66;93621.63;5110108;28;20217;-77
2022/04/10 05:36:53;;;;;;;10.07;9.00;;;;;;;14.99;55.60;93627.41;5110190;28;20676;-76
2022/04/10 05:39:22;;;;;;;9.73;8.73;;;;;;;14.98;55.81;93625.81;5110613;28;20180;-73
2022/04/10 05:41:49;;;;;;;11.40;9.07;;;;;;;15.01;55.80;93629.78;5110829;28;20189;-73
2022/04/10 05:44:15;;;;;;;9.57;8.67;;;;;;;15.01;55.44;93630.56;5110359;28;20678;-75
2022/04/10 05:46:42;;;;;;;9.70;8.30;;;;;;;15.00;55.52;93638.50;5108355;28;20707;-83
2022/04/10 05:49:09;;;;;;;9.23;8.23;;;;;;;15.00;55.54;93639.28;5109262;28;20199;-78
2022/04/10 05:51:36;;;;;;;11.97;8.87;;;;;;;14.91;55.34;93613.88;5109116;28;20191;-80
2022/04/10 05:54:03;;;;;;;9.53;8.57;;;;;;;15.04;55.23;93647.41;5107654;28;20185;-75
2022/04/10 05:56:31;;;;;;;10.20;7.93;;;;;;;15.05;55.24;93649.00;5109816;28;20189;-71
2022/04/10 05:58:58;;;;;;;9.37;8.37;;;;;;;15.04;55.30;93657.72;5110081;28;20603;-79
2022/04/10 06:01:25;;;;;;;9.27;8.37;;;;;;;15.01;55.10;93661.47;5110350;28;20199;-73
2022/04/10 06:03:52;;;;;;;9.47;8.47;;;;;;;15.04;55.06;93662.88;5109201;28;20193;-72
2022/04/10 06:06:18;;;;;;;10.00;8.00;;;;;;;15.00;54.97;93667.59;5105058;28;20209;-76
2022/04/10 06:08:45;;;;;;;11.10;8.33;;;;;;;15.00;54.94;93674.53;5110586;28;20213;-86
2022/04/10 06:11:12;;;;;;;9.67;8.30;;;;;;;14.98;54.68;93672.16;5108196;28;20623;-72
2022/04/10 06:13:40;;;;;;;8.33;7.40;;;;;;;14.98;54.56;93681.63;5107564;28;20254;-74
2022/04/10 06:16:07;;;;;;;8.03;7.30;;;;;;;14.93;54.64;93681.41;5109154;28;20178;-80
2022/04/10 06:18:34;;;;;;;8.20;7.30;;;;;;;14.84;54.97;93677.41;5109836;28;20593;-79
2022/04/10 06:21:01;;;;;;;7.07;6.37;;;;;;;14.88;54.70;93689.69;5109520;28;20273;-86
2022/04/10 06:23:28;;;;;;;7.97;6.30;;;;;;;14.91;54.58;93685.97;5110850;28;20182;-85
2022/04/10 06:25:55;;;;;;;7.30;6.53;;;;;;;14.87;54.76;93685.53;5109863;28;20213;-76
2022/04/10 06:28:21;;;;;;;6.77;6.13;;;;;;;14.89;54.36;93688.72;5110235;28;20189;-81
2022/04/10 06:30:50;;;;;;;6.90;6.20;;;;;;;14.87;54.63;93684.75;5109042;28;20189;-79
2022/04/10 06:33:17;;;;;;;6.80;6.10;;;;;;;14.90;54.27;93682.59;5110184;28;20185;-82
2022/04/10 06:35:44;;;;;;;7.37;6.67;;;;;;;14.91;54.12;93679.03;5109280;28;20208;-81
2022/04/10 06:38:11;;;;;;;7.03;6.33;;;;;;;14.92;53.94;93684.97;5110216;28;20296;-81
2022/04/10 06:40:38;;;;;;;7.80;5.77;;;;;;;14.94;53.92;93680.41;5101991;28;20297;-82
2022/04/10 06:43:07;;;;;;;6.83;5.30;;;;;;;14.95;54.10;93674.31;5088982;28;20235;-80
2022/04/10 06:45:34;;;;;;;6.30;5.70;;;;;;;15.03;53.93;93687.03;5089840;28;20248;-84
2022/04/10 06:48:02;;;;;;;5.37;4.87;;;;;;;15.08;53.76;93683.88;5089470;28;20201;-81
2022/04/10 06:50:29;;;;;;;5.40;4.90;;;;;;;15.16;53.46;93676.81;5088726;28;20193;-84
2022/04/10 06:52:55;;;;;;;5.30;4.77;;;;;;;15.22;53.20;93686.34;5089244;28;20250;-82
2022/04/10 06:55:22;;;;;;;6.57;5.27;;;;;;;15.25;52.91;93685.97;5090839;28;20197;-79
2022/04/10 06:57:49;;;;;;;4.93;4.43;;;;;;;15.29;53.02;93676.88;5100139;28;20197;-77
2022/04/10 07:00:17;;;;;;;4.77;4.27;;;;;;;15.35;52.85;93680.44;5089041;28;20204;-82
2022/04/10 07:02:43;;;;;;;4.37;3.97;;;;;;;15.40;52.71;93672.94;5102399;28;20196;-84
2022/04/10 07:05:12;;;;;;;5.90;4.30;;;;;;;15.45;52.64;93678.28;5109197;28;20196;-84
2022/04/10 07:07:38;;;;;;;5.23;4.27;;;;;;;15.51;52.56;93676.75;5109166;28;20558;-85
2022/04/10 07:10:06;;;;;;;4.00;3.53;;;;;;;15.52;52.41;93680.91;5109039;28;20196;-86
2022/04/10 07:12:33;;;;;;;3.83;3.47;;;;;;;15.51;51.91;93689.63;5093073;28;20207;-80
2022/04/10 07:15:01;;;;;;;3.93;3.53;;;;;;;15.46;52.47;93671.38;5100146;28;20189;-74
2022/04/10 07:17:29;;;;;;;4.17;3.50;;;;;;;15.46;52.32;93674.75;5088349;28;20197;-81
2022/04/10 07:19:56;;;;;;;4.37;3.80;;;;;;;15.48;52.39;93672.78;5104741;28;20251;-80
2022/04/10 07:25:09;;;;;;;3.60;3.30;;;;;;;15.46;52.09;93687.66;5095491;28;20299;-78
2022/04/10 07:27:36;;;;;;;3.80;3.50;;;;;;;15.46;51.88;93689.44;5108876;28;20905;-83
2022/04/10 07:30:04;;;;;;;3.00;2.80;;;;;;;15.44;51.80;93693.97;5108723;28;20196;-81
2022/04/10 07:32:31;;;;;;;3.73;3.43;;;;;;;15.43;51.74;93687.22;5099671;28;20721;-82
2022/04/10 07:35:02;;;;;;;3.27;2.60;;;;;;;15.44;51.65;93692.19;5109395;28;20235;-77
2022/04/10 07:37:30;;;;;;;3.90;2.67;;;;;;;15.42;51.68;93698.53;5097595;28;20193;-74
2022/04/10 07:39:57;;;;;;;3.90;2.80;;;;;;;15.41;51.52;93697.69;5089759;28;20190;-82
2022/04/10 07:42:23;;;;;;;2.90;2.60;;;;;;;15.43;51.45;93700.09;5094071;28;20193;-84
2022/04/10 07:44:54;;;;;;;2.83;2.60;;;;;;;15.42;51.10;93688.22;5106369;28;20174;-76
2022/04/10 07:47:26;;;;;;;2.77;2.57;;;;;;;15.53;51.09;93703.13;5092638;28;21000;-75
2022/04/10 07:49:54;;;;;;;2.60;2.40;;;;;;;15.60;50.52;93701.38;5088375;28;20984;-81
2022/04/10 07:52:21;;;;;;;2.40;2.20;;;;;;;15.71;50.20;93693.09;5107839;28;20188;-81
2022/04/10 07:54:51;;;;;;;2.43;2.23;;;;;;;15.73;49.57;93698.88;5108810;28;20181;-78
2022/04/10 07:57:18;;;;;;;2.50;2.30;;;;;;;15.72;49.36;93691.34;5099879;28;20197;-81
2022/04/10 07:59:45;;;;;;;2.47;2.10;;;;;;;15.77;49.41;93704.44;5087954;28;20220;-77
2022/04/10 08:02:12;;;;;;;2.00;1.90;;;;;;;15.75;48.85;93706.41;5089949;28;20196;-84
2022/04/10 08:04:39;;;;;;;2.00;1.90;;;;;;;15.79;48.65;93707.59;5089672;28;20185;-86
2022/04/10 08:07:06;;;;;;;4.73;2.10;;;;;;;15.82;48.68;93703.84;5090807;28;20225;-87
2022/04/10 08:09:33;;;;;;;1.80;1.70;;;;;;;15.88;48.67;93716.75;5090431;28;20197;-90
2022/04/10 08:12:01;;;;;;;1.90;1.80;;;;;;;15.90;48.03;93712.19;5090311;28;20192;-81
2022/04/10 08:14:28;;;;;;;1.60;1.50;;;;;;;15.98;47.84;93712.03;5089317;28;20918;-74
2022/04/10 08:16:55;;;;;;;1.73;1.63;;;;;;;16.02;47.58;93720.97;5089477;28;20185;-87
2022/04/10 08:19:22;;;;;;;1.63;1.53;;;;;;;16.02;47.36;93720.97;5094243;28;20193;-83
2022/04/10 08:21:49;;;;;;;1.57;1.47;;;;;;;16.07;47.30;93724.75;5091361;28;20225;-79
2022/04/10 08:24:16;;;;;;;1.93;1.83;;;;;;;16.05;47.30;93725.72;5090207;28;20201;-78
2022/04/10 08:26:43;;;;;;;1.93;1.60;;;;;;;16.05;47.18;93725.72;5089490;28;20226;-84
2022/04/10 08:29:11;;;;;;;2.50;1.60;;;;;;;16.08;47.01;93734.84;5098874;28;20207;-81
2022/04/10 08:31:38;;;;;;;2.93;1.73;;;;;;;16.11;46.91;93733.69;5108952;28;20204;-79
2022/04/10 08:34:04;;;;;;;1.50;1.40;;;;;;;16.16;46.64;93737.25;5112151;28;20251;-80
2022/04/10 08:36:33;;;;;;;3.50;1.70;;;;;;;16.17;46.50;93741.44;5115960;28;20261;-82
2022/04/10 08:38:59;;;;;;;1.47;1.37;;;;;;;16.12;46.17;93754.13;5116154;28;20604;-83
2022/04/10 08:41:31;;;;;;;1.40;1.30;;;;;;;16.08;46.10;93757.28;5114759;28;20189;-84
2022/04/10 08:44:01;;;;;;;2.33;1.30;;;;;;;15.94;45.84;93770.13;5111290;28;20563;-78
2022/04/10 08:46:30;;;;;;;1.50;1.40;;;;;;;15.76;46.26;93765.50;5100307;28;20263;-86
2022/04/10 08:48:59;;;;;;;1.37;1.20;;;;;;;15.64;46.57;93777.34;5098114;28;20196;-78
2022/04/10 08:51:28;;;;;;;1.67;1.30;;;;;;;15.55;46.55;93779.25;5111534;28;20539;-84
2022/04/10 08:53:56;;;;;;;4.07;1.70;;;;;;;15.98;83.98;93786.03;5113717;28;20197;-85
2022/04/10 08:56:24;;;;;;;1.87;1.70;;;;;;;16.43;85.07;93778.59;5112026;28;20185;-82
2022/04/10 08:58:51;;;;;;;1.60;1.50;;;;;;;16.88;82.32;93800.34;5112011;28;20192;-80
2022/04/10 09:01:19;;;;;;;2.63;1.70;;;;;;;17.24;78.26;93788.78;5111940;28;20204;-89
2022/04/10 09:03:48;;;;;;;1.57;1.40;;;;;;;17.36;67.42;93796.72;5111653;28;20181;-85
2022/04/10 09:06:16;;;;;;;2.00;1.77;;;;;;;17.26;58.49;93807.47;5111382;28;20251;-83
2022/04/10 09:08:43;;;;;;;1.60;1.50;;;;;;;17.08;55.97;93808.06;5103950;28;20567;-83
2022/04/10 09:11:11;;;;;;;1.60;1.50;;;;;;;16.87;54.46;93811.63;5091986;28;20182;-77
2022/04/10 09:13:40;;;;;;;1.20;1.20;;;;;;;16.65;53.70;93810.19;5103080;28;20192;-82
2022/04/10 09:16:15;;;;;;;1.60;1.50;;;;;;;16.43;52.58;93801.81;5110595;28;20185;-80
2022/04/10 09:18:54;;;;;;;3.33;1.47;;;;;;;16.21;51.79;93811.47;5096336;28;20284;-79
2022/04/10 09:21:26;;;;;;;2.43;1.50;;;;;;;16.01;51.35;93801.88;5103805;28;20279;-79
2022/04/10 09:23:59;;;;;;;1.90;1.70;;;;;;;15.89;50.96;93813.75;5092388;28;20205;-78
2022/04/10 09:26:27;;;;;;;3.23;1.87;;;;;;;15.72;50.43;93813.28;5110669;28;20224;-84
2022/04/10 09:28:54;;;;;;;3.87;2.57;;;;;;;15.60;50.61;93801.09;5110154;28;20746;-82
2022/04/10 09:31:29;;;;;;;7.33;3.40;;;;;;;15.53;50.23;93809.56;5111248;28;20594;-69
2022/04/10 09:33:59;;;;;;;8.17;4.87;;;;;;;15.48;50.45;93808.53;5109518;28;20313;-72
2022/04/10 09:36:37;;;;;;;7.07;4.60;;;;;;;15.42;50.35;93809.31;5091983;28;20189;-70
2022/04/10 09:39:07;;;;;;;8.87;4.40;;;;;;;15.42;50.30;93806.72;5109262;28;20220;-81
2022/04/10 09:41:38;;;;;;;6.57;4.40;;;;;;;15.44;50.30;93805.53;5109609;28;20226;-71
2022/04/10 09:44:13;;;;;;;9.23;5.20;;;;;;;15.48;50.22;93805.97;5096084;28;20189;-79
2022/04/10 09:46:40;;;;;;;6.63;3.93;;;;;;;15.52;49.79;93817.47;5105843;28;20266;-79
2022/04/10 09:49:14;;;;;;;5.13;3.20;;;;;;;15.50;49.71;93822.84;5099589;28;20193;-77
2022/04/10 09:52:01;;;;;;;4.67;2.93;;;;;;;15.41;49.53;93821.38;5089638;28;20296;-72
2022/04/10 09:54:34;;;;;;;2.47;2.27;;;;;;;15.32;49.36;93817.34;5089597;28;20795;-73
2022/04/10 09:57:03;;;;;;;2.50;1.90;;;;;;;15.26;49.89;93825.84;5093309;28;20177;-74
2022/04/10 09:59:36;;;;;;;2.00;1.80;;;;;;;15.19;50.15;93830.13;5109711;28;20189;-72
2022/04/10 10:02:05;;;;;;;2.23;1.80;;;;;;;15.15;50.39;93827.13;5109217;28;20203;-81
2022/04/10 10:04:35;;;;;;;1.60;1.50;;;;;;;15.14;50.33;93824.75;5102743;28;20197;-79
2022/04/10 10:07:04;;;;;;;1.83;1.67;;;;;;;15.10;50.48;93829.47;5088993;28;20232;-72
2022/04/10 10:09:33;;;;;;;2.47;1.80;;;;;;;15.03;50.55;93829.44;5093197;28;20224;-79
2022/04/10 10:12:02;;;;;;;1.80;1.70;;;;;;;14.97;50.56;93821.66;5111300;28;20580;-78
2022/04/10 10:14:31;;;;;;;1.70;1.60;;;;;;;14.85;51.08;93816.19;5111544;28;20221;-83
2022/04/10 10:16:59;;;;;;;1.50;1.40;;;;;;;14.82;51.23;93813.22;5112145;28;20254;-73
2022/04/10 10:19:26;;;;;;;1.67;1.57;;;;;;;14.76;51.04;93815.53;5112883;28;20232;-79
2022/04/10 10:21:55;;;;;;;1.33;1.23;;;;;;;14.66;51.15;93815.06;5112107;28;20219;-79
2022/04/10 10:24:25;;;;;;;1.30;1.30;;;;;;;14.59;51.22;93811.59;5112803;28;20247;-76
2022/04/10 10:27:13;;;;;;;2.37;1.50;;;;;;;14.53;51.36;93802.84;5112309;28;20259;-77
2022/04/10 10:30:02;;;;;;;2.80;1.90;;;;;;;14.45;51.59;93802.94;5111758;28;20189;-71
2022/04/10 10:32:40;;;;;;;1.60;1.50;;;;;;;14.43;51.57;93804.13;5112424;28;20181;-78
2022/04/10 10:35:10;;;;;;;1.57;1.47;;;;;;;14.33;51.77;93796.69;5109793;28;20260;-72
2022/04/10 10:37:52;;;;;;;1.63;1.53;;;;;;;14.30;52.09;93794.50;5112298;28;20196;-73
2022/04/10 10:40:19;;;;;;;1.70;1.60;;;;;;;14.23;52.31;93807.28;5107488;28;20198;-77
2022/04/10 10:42:47;;;;;;;1.60;1.50;;;;;;;14.20;52.06;93809.41;5089405;28;20198;-76
2022/04/10 10:45:33;;;;;;;1.77;1.67;;;;;;;14.13;52.29;93804.22;5088568;28;20202;-72
2022/04/10 10:48:22;;;;;;;1.80;1.70;;;;;;;13.97;52.63;93787.22;5088987;28;20201;-75
2022/04/10 10:50:50;;;;;;;1.87;1.77;;;;;;;13.90;52.73;93776.03;5089017;28;20194;-74
2022/04/10 10:53:23;;;;;;;1.70;1.60;;;;;;;13.94;52.78;93787.56;5088552;28;20277;-72
2022/04/10 10:55:51;;;;;;;1.70;1.60;;;;;;;13.92;52.84;93789.53;5088012;28;20664;-70
2022/04/10 10:58:32;;;;;;;1.70;1.60;;;;;;;13.87;52.92;93784.13;5088692;28;20189;-69
2022/04/10 11:01:04;;;;;;;1.80;1.70;;;;;;;13.83;52.86;93782.91;5088996;28;20197;-75
2022/04/10 11:03:31;;;;;;;1.63;1.53;;;;;;;13.78;52.65;93783.44;5088981;28;20193;-73
2022/04/10 11:06:05;;;;;;;1.60;1.50;;;;;;;13.76;52.83;93785.38;5088973;28;20219;-74
2022/04/10 11:08:40;;;;;;;1.67;1.57;;;;;;;13.76;52.59;93782.81;5096082;28;20240;-76
2022/04/10 11:11:07;;;;;;;1.50;1.40;;;;;;;13.68;52.60;93775.19;5109136;28;20210;-70
2022/04/10 11:13:38;;;;;;;1.60;1.50;;;;;;;13.59;53.08;93766.00;5106301;28;20189;-73
2022/04/10 11:16:10;;;;;;;1.70;1.60;;;;;;;13.55;53.27;93772.47;5088526;28;20193;-71
2022/04/10 11:18:42;;;;;;;1.77;1.67;;;;;;;13.53;53.11;93787.28;5088177;28;20320;-69
2022/04/10 11:21:11;;;;;;;1.73;1.63;;;;;;;13.52;52.92;93780.56;5088487;28;20185;-73
2022/04/10 11:23:41;;;;;;;1.80;1.70;;;;;;;13.46;52.99;93788.94;5087971;28;20197;-74
2022/04/10 11:26:13;;;;;;;1.87;1.77;;;;;;;13.38;53.02;93776.97;5088675;28;20255;-74
2022/04/10 11:29:02;;;;;;;1.80;1.70;;;;;;;13.28;53.22;93769.56;5088120;28;20272;-77
2022/04/10 11:31:36;;;;;;;1.63;1.53;;;;;;;13.30;53.08;93777.09;5088115;28;20229;-76
2022/04/10 11:34:13;;;;;;;2.03;1.70;;;;;;;13.25;53.40;93779.38;5087849;28;20225;-74
2022/04/10 11:36:52;;;;;;;2.67;1.70;;;;;;;13.21;53.45;93780.66;5088047;28;20193;-74
2022/04/10 11:39:25;;;;;;;1.67;1.57;;;;;;;13.18;53.32;93778.47;5088597;28;20346;-75
2022/04/10 11:41:53;;;;;;;1.80;1.70;;;;;;;13.15;53.27;93781.38;5088198;28;20282;-74